Terminal Aerodrome Forecast
Issued by NWS

Home | Current Version | Previous Version | Text Only | Print | Product List | Glossary On
Versions: 1 2 3 4 5 6 7 8 9 10 11 12 13 14 15 16 17 18
000
FTAK31 PAJN 231700
TAFAYA
TAF
PAYA 231740Z 2318/2418 12006KT P6SM -RA SCT025 BKN040 OVC060
     FM232100 12008KT 6SM -RA BR SCT010 BKN025 OVC050
      TEMPO 2322/2402 14011KT 4SM -RA BR BKN010 OVC025
     FM240300 VRB03KT P6SM -RA BKN025 OVC050
     FM240900 00000KT P6SM -RA BKN015 OVC025
     FM241200 00000KT P6SM -RA SCT012 OVC025
     FM241500 VRB03KT P6SM -RA SCT025 OVC050
      AMD LTD TO CLD VIS AND WIND 2401/2410=

USA.gov is the U.S. government's official web portal to all federal, state and local government web resources and services.